sensor_id;sensor_type;location;lat;lon;timestamp;P1;durP1;ratioP1;P2;durP2;ratioP2
31974;SDS011;18500;43.618;1.474;2024-03-08T06:26:51;9.68;;;4.57;;
31974;SDS011;18500;43.618;1.474;2024-03-08T06:29:18;8.65;;;5.43;;
31974;SDS011;18500;43.618;1.474;2024-03-08T06:31:44;10.95;;;5.50;;
31974;SDS011;18500;43.618;1.474;2024-03-08T06:34:09;14.40;;;5.25;;
31974;SDS011;18500;43.618;1.474;2024-03-08T06:36:36;15.35;;;7.20;;
31974;SDS011;18500;43.618;1.474;2024-03-08T06:39:02;8.40;;;4.60;;
31974;SDS011;18500;43.618;1.474;2024-03-08T06:41:34;9.47;;;4.10;;
31974;SDS011;18500;43.618;1.474;2024-03-08T06:44:01;11.57;;;5.80;;
31974;SDS011;18500;43.618;1.474;2024-03-08T06:46:26;13.00;;;5.95;;
31974;SDS011;18500;43.618;1.474;2024-03-08T06:48:53;6.57;;;4.35;;
31974;SDS011;18500;43.618;1.474;2024-03-08T06:51:18;3.70;;;3.20;;
31974;SDS011;18500;43.618;1.474;2024-03-08T06:53:44;9.27;;;4.78;;
31974;SDS011;18500;43.618;1.474;2024-03-08T06:56:10;4.60;;;3.70;;
31974;SDS011;18500;43.618;1.474;2024-03-08T06:58:36;10.02;;;4.85;;
31974;SDS011;18500;43.618;1.474;2024-03-08T07:01:02;10.23;;;3.80;;
31974;SDS011;18500;43.618;1.474;2024-03-08T07:03:32;3.55;;;3.22;;
31974;SDS011;18500;43.618;1.474;2024-03-08T07:05:58;4.35;;;3.72;;
31974;SDS011;18500;43.618;1.474;2024-03-08T07:08:24;11.23;;;3.83;;
31974;SDS011;18500;43.618;1.474;2024-03-08T07:10:51;6.45;;;3.42;;
31974;SDS011;18500;43.618;1.474;2024-03-08T07:13:18;6.60;;;3.40;;
31974;SDS011;18500;43.618;1.474;2024-03-08T07:15:44;4.60;;;3.67;;
31974;SDS011;18500;43.618;1.474;2024-03-08T07:18:10;3.88;;;3.58;;
31974;SDS011;18500;43.618;1.474;2024-03-08T07:20:39;7.78;;;3.05;;
31974;SDS011;18500;43.618;1.474;2024-03-08T07:23:05;4.60;;;3.40;;
31974;SDS011;18500;43.618;1.474;2024-03-08T07:25:31;3.72;;;3.38;;
31974;SDS011;18500;43.618;1.474;2024-03-08T07:27:56;10.32;;;3.40;;
31974;SDS011;18500;43.618;1.474;2024-03-08T07:30:23;7.78;;;3.10;;
31974;SDS011;18500;43.618;1.474;2024-03-08T07:33:08;10.43;;;3.78;;
31974;SDS011;18500;43.618;1.474;2024-03-08T07:35:37;5.60;;;3.40;;
31974;SDS011;18500;43.618;1.474;2024-03-08T07:38:04;5.15;;;3.00;;
31974;SDS011;18500;43.618;1.474;2024-03-08T07:40:30;7.03;;;3.35;;
31974;SDS011;18500;43.618;1.474;2024-03-08T07:43:13;6.93;;;3.53;;
31974;SDS011;18500;43.618;1.474;2024-03-08T07:45:38;4.93;;;2.95;;
31974;SDS011;18500;43.618;1.474;2024-03-08T07:48:05;10.43;;;2.90;;
31974;SDS011;18500;43.618;1.474;2024-03-08T07:50:37;6.03;;;3.20;;
31974;SDS011;18500;43.618;1.474;2024-03-08T07:53:04;10.45;;;3.30;;
31974;SDS011;18500;43.618;1.474;2024-03-08T07:55:33;3.60;;;3.22;;
31974;SDS011;18500;43.618;1.474;2024-03-08T07:58:00;6.38;;;2.97;;
31974;SDS011;18500;43.618;1.474;2024-03-08T08:00:26;3.30;;;2.78;;
31974;SDS011;18500;43.618;1.474;2024-03-08T08:02:52;3.38;;;2.95;;
31974;SDS011;18500;43.618;1.474;2024-03-08T08:05:18;5.63;;;3.90;;
31974;SDS011;18500;43.618;1.474;2024-03-08T08:07:44;4.97;;;2.90;;
31974;SDS011;18500;43.618;1.474;2024-03-08T08:10:14;5.65;;;4.43;;
31974;SDS011;18500;43.618;1.474;2024-03-08T08:12:43;7.07;;;3.13;;
31974;SDS011;18500;43.618;1.474;2024-03-08T08:15:10;6.70;;;3.17;;
31974;SDS011;18500;43.618;1.474;2024-03-08T08:17:35;5.60;;;3.50;;
31974;SDS011;18500;43.618;1.474;2024-03-08T08:20:01;3.08;;;2.80;;
31974;SDS011;18500;43.618;1.474;2024-03-08T08:22:30;8.20;;;3.22;;
31974;SDS011;18500;43.618;1.474;2024-03-08T08:24:56;4.57;;;2.88;;
31974;SDS011;18500;43.618;1.474;2024-03-08T08:27:21;7.32;;;5.05;;
31974;SDS011;18500;43.618;1.474;2024-03-08T08:29:47;4.60;;;3.50;;
31974;SDS011;18500;43.618;1.474;2024-03-08T08:32:14;4.93;;;3.45;;
31974;SDS011;18500;43.618;1.474;2024-03-08T08:34:40;3.47;;;3.22;;
31974;SDS011;18500;43.618;1.474;2024-03-08T08:37:07;7.35;;;3.08;;
31974;SDS011;18500;43.618;1.474;2024-03-08T08:39:34;8.65;;;3.13;;
31974;SDS011;18500;43.618;1.474;2024-03-08T08:42:00;3.00;;;2.80;;
31974;SDS011;18500;43.618;1.474;2024-03-08T08:44:27;7.55;;;3.45;;
31974;SDS011;18500;43.618;1.474;2024-03-08T08:46:53;3.83;;;3.00;;
31974;SDS011;18500;43.618;1.474;2024-03-08T08:49:19;6.50;;;3.67;;
31974;SDS011;18500;43.618;1.474;2024-03-08T08:51:49;7.00;;;2.78;;
31974;SDS011;18500;43.618;1.474;2024-03-08T08:54:15;2.90;;;2.53;;
31974;SDS011;18500;43.618;1.474;2024-03-08T08:56:42;3.17;;;2.97;;
31974;SDS011;18500;43.618;1.474;2024-03-08T08:59:09;7.75;;;4.03;;
31974;SDS011;18500;43.618;1.474;2024-03-08T09:01:39;7.05;;;2.80;;
31974;SDS011;18500;43.618;1.474;2024-03-08T09:04:05;4.68;;;3.25;;
31974;SDS011;18500;43.618;1.474;2024-03-08T09:06:31;5.55;;;3.53;;
31974;SDS011;18500;43.618;1.474;2024-03-08T09:08:57;9.23;;;3.53;;
31974;SDS011;18500;43.618;1.474;2024-03-08T09:11:23;21.23;;;10.73;;
31974;SDS011;18500;43.618;1.474;2024-03-08T09:13:50;12.55;;;4.50;;
31974;SDS011;18500;43.618;1.474;2024-03-08T09:16:16;17.77;;;6.10;;
31974;SDS011;18500;43.618;1.474;2024-03-08T09:18:41;10.68;;;4.57;;
31974;SDS011;18500;43.618;1.474;2024-03-08T09:21:07;29.52;;;6.95;;
31974;SDS011;18500;43.618;1.474;2024-03-08T09:23:35;12.93;;;6.20;;
31974;SDS011;18500;43.618;1.474;2024-03-08T09:26:01;12.48;;;8.68;;
31974;SDS011;18500;43.618;1.474;2024-03-08T09:28:28;9.75;;;8.57;;
31974;SDS011;18500;43.618;1.474;2024-03-08T09:30:54;7.55;;;6.20;;
31974;SDS011;18500;43.618;1.474;2024-03-08T09:33:20;16.95;;;7.80;;
31974;SDS011;18500;43.618;1.474;2024-03-08T09:35:46;19.35;;;8.52;;
31974;SDS011;18500;43.618;1.474;2024-03-08T09:38:13;11.43;;;8.02;;
31974;SDS011;18500;43.618;1.474;2024-03-08T09:40:42;8.73;;;6.32;;
31974;SDS011;18500;43.618;1.474;2024-03-08T09:43:11;19.85;;;11.10;;
31974;SDS011;18500;43.618;1.474;2024-03-08T09:45:37;15.82;;;8.15;;
31974;SDS011;18500;43.618;1.474;2024-03-08T09:48:06;12.02;;;8.13;;
31974;SDS011;18500;43.618;1.474;2024-03-08T09:50:41;11.40;;;8.82;;
31974;SDS011;18500;43.618;1.474;2024-03-08T09:53:08;16.48;;;8.35;;
31974;SDS011;18500;43.618;1.474;2024-03-08T09:55:37;23.85;;;11.30;;
31974;SDS011;18500;43.618;1.474;2024-03-08T09:58:07;14.02;;;7.80;;
31974;SDS011;18500;43.618;1.474;2024-03-08T10:00:56;22.02;;;10.52;;
31974;SDS011;18500;43.618;1.474;2024-03-08T10:03:22;12.73;;;7.38;;
31974;SDS011;18500;43.618;1.474;2024-03-08T10:05:48;15.85;;;8.30;;
31974;SDS011;18500;43.618;1.474;2024-03-08T10:08:15;8.15;;;7.35;;
31974;SDS011;18500;43.618;1.474;2024-03-08T10:10:40;6.75;;;5.82;;
31974;SDS011;18500;43.618;1.474;2024-03-08T10:13:09;10.55;;;6.85;;
31974;SDS011;18500;43.618;1.474;2024-03-08T10:15:37;10.63;;;6.63;;
31974;SDS011;18500;43.618;1.474;2024-03-08T10:18:05;14.82;;;6.55;;
31974;SDS011;18500;43.618;1.474;2024-03-08T10:20:31;10.65;;;6.85;;
31974;SDS011;18500;43.618;1.474;2024-03-08T10:23:02;11.90;;;6.55;;
31974;SDS011;18500;43.618;1.474;2024-03-08T10:25:30;10.90;;;8.70;;
31974;SDS011;18500;43.618;1.474;2024-03-08T10:27:56;10.13;;;9.25;;
31974;SDS011;18500;43.618;1.474;2024-03-08T10:30:22;8.48;;;7.70;;
31974;SDS011;18500;43.618;1.474;2024-03-08T10:32:48;9.52;;;8.38;;
31974;SDS011;18500;43.618;1.474;2024-03-08T10:35:14;9.40;;;8.57;;
31974;SDS011;18500;43.618;1.474;2024-03-08T10:37:45;10.98;;;8.63;;
31974;SDS011;18500;43.618;1.474;2024-03-08T10:40:18;11.65;;;9.35;;
31974;SDS011;18500;43.618;1.474;2024-03-08T10:45:30;9.88;;;8.98;;
31974;SDS011;18500;43.618;1.474;2024-03-08T10:50:41;10.50;;;9.60;;
31974;SDS011;18500;43.618;1.474;2024-03-08T10:53:10;9.20;;;8.38;;
31974;SDS011;18500;43.618;1.474;2024-03-08T10:55:39;11.30;;;10.05;;
31974;SDS011;18500;43.618;1.474;2024-03-08T10:58:08;11.88;;;10.65;;
31974;SDS011;18500;43.618;1.474;2024-03-08T11:00:35;11.18;;;9.63;;
31974;SDS011;18500;43.618;1.474;2024-03-08T11:03:02;11.80;;;10.52;;
31974;SDS011;18500;43.618;1.474;2024-03-08T11:08:17;15.02;;;14.00;;
31974;SDS011;18500;43.618;1.474;2024-03-08T11:10:52;12.05;;;11.02;;
31974;SDS011;18500;43.618;1.474;2024-03-08T11:13:33;15.30;;;13.80;;
31974;SDS011;18500;43.618;1.474;2024-03-08T11:16:00;15.27;;;11.85;;
31974;SDS011;18500;43.618;1.474;2024-03-08T11:18:32;9.95;;;9.15;;
31974;SDS011;18500;43.618;1.474;2024-03-08T11:21:02;9.23;;;6.40;;
31974;SDS011;18500;43.618;1.474;2024-03-08T11:23:31;7.75;;;6.97;;
31974;SDS011;18500;43.618;1.474;2024-03-08T11:25:58;7.22;;;6.72;;
31974;SDS011;18500;43.618;1.474;2024-03-08T11:28:24;6.13;;;4.80;;
31974;SDS011;18500;43.618;1.474;2024-03-08T11:33:27;5.00;;;4.50;;
31974;SDS011;18500;43.618;1.474;2024-03-08T11:38:47;6.85;;;4.70;;
31974;SDS011;18500;43.618;1.474;2024-03-08T11:41:17;6.93;;;4.35;;
31974;SDS011;18500;43.618;1.474;2024-03-08T11:43:47;5.00;;;4.50;;
31974;SDS011;18500;43.618;1.474;2024-03-08T11:46:15;5.30;;;4.28;;
31974;SDS011;18500;43.618;1.474;2024-03-08T11:48:41;5.35;;;3.67;;
31974;SDS011;18500;43.618;1.474;2024-03-08T11:51:08;5.00;;;4.00;;
31974;SDS011;18500;43.618;1.474;2024-03-08T11:53:38;6.95;;;4.15;;
31974;SDS011;18500;43.618;1.474;2024-03-08T11:56:09;4.68;;;3.90;;
31974;SDS011;18500;43.618;1.474;2024-03-08T11:58:36;4.20;;;3.85;;
31974;SDS011;18500;43.618;1.474;2024-03-08T12:01:03;4.38;;;3.90;;
31974;SDS011;18500;43.618;1.474;2024-03-08T12:03:30;7.22;;;4.07;;
31974;SDS011;18500;43.618;1.474;2024-03-08T12:05:59;5.70;;;4.38;;
31974;SDS011;18500;43.618;1.474;2024-03-08T12:08:30;4.53;;;4.22;;
31974;SDS011;18500;43.618;1.474;2024-03-08T12:10:57;4.90;;;4.50;;
31974;SDS011;18500;43.618;1.474;2024-03-08T12:13:26;3.80;;;3.50;;
31974;SDS011;18500;43.618;1.474;2024-03-08T12:15:57;3.65;;;3.35;;
31974;SDS011;18500;43.618;1.474;2024-03-08T12:18:28;3.88;;;3.47;;
31974;SDS011;18500;43.618;1.474;2024-03-08T12:21:05;3.67;;;3.30;;
31974;SDS011;18500;43.618;1.474;2024-03-08T12:23:35;4.40;;;3.22;;
31974;SDS011;18500;43.618;1.474;2024-03-08T12:26:18;3.95;;;3.45;;
31974;SDS011;18500;43.618;1.474;2024-03-08T12:28:50;3.53;;;3.33;;
31974;SDS011;18500;43.618;1.474;2024-03-08T12:31:17;4.00;;;3.60;;
31974;SDS011;18500;43.618;1.474;2024-03-08T12:36:14;3.78;;;3.55;;
31974;SDS011;18500;43.618;1.474;2024-03-08T12:38:43;4.65;;;4.25;;
31974;SDS011;18500;43.618;1.474;2024-03-08T12:41:13;9.07;;;8.52;;
31974;SDS011;18500;43.618;1.474;2024-03-08T12:43:39;13.75;;;13.02;;
31974;SDS011;18500;43.618;1.474;2024-03-08T12:46:05;17.00;;;16.17;;
31974;SDS011;18500;43.618;1.474;2024-03-08T12:48:34;16.55;;;15.63;;
31974;SDS011;18500;43.618;1.474;2024-03-08T12:51:00;4.32;;;4.03;;
31974;SDS011;18500;43.618;1.474;2024-03-08T12:53:26;4.25;;;3.95;;
31974;SDS011;18500;43.618;1.474;2024-03-08T12:55:54;4.65;;;4.35;;
31974;SDS011;18500;43.618;1.474;2024-03-08T12:58:21;4.80;;;4.40;;
31974;SDS011;18500;43.618;1.474;2024-03-08T13:00:47;5.95;;;5.55;;
31974;SDS011;18500;43.618;1.474;2024-03-08T13:03:13;4.25;;;4.05;;
31974;SDS011;18500;43.618;1.474;2024-03-08T13:05:39;4.60;;;4.20;;
31974;SDS011;18500;43.618;1.474;2024-03-08T13:08:05;5.65;;;5.18;;
31974;SDS011;18500;43.618;1.474;2024-03-08T13:10:37;6.07;;;5.68;;
31974;SDS011;18500;43.618;1.474;2024-03-08T13:13:03;5.55;;;5.15;;
31974;SDS011;18500;43.618;1.474;2024-03-08T13:15:30;3.78;;;3.58;;
31974;SDS011;18500;43.618;1.474;2024-03-08T13:17:55;3.78;;;3.58;;
31974;SDS011;18500;43.618;1.474;2024-03-08T13:20:24;3.90;;;3.60;;
31974;SDS011;18500;43.618;1.474;2024-03-08T13:22:53;4.32;;;3.33;;
31974;SDS011;18500;43.618;1.474;2024-03-08T13:25:19;3.33;;;3.13;;
31974;SDS011;18500;43.618;1.474;2024-03-08T13:27:45;3.55;;;3.25;;
31974;SDS011;18500;43.618;1.474;2024-03-08T13:30:11;20.88;;;19.90;;
31974;SDS011;18500;43.618;1.474;2024-03-08T13:32:43;25.35;;;24.08;;
31974;SDS011;18500;43.618;1.474;2024-03-08T13:35:09;35.20;;;33.60;;
31974;SDS011;18500;43.618;1.474;2024-03-08T13:37:42;20.75;;;19.80;;
31974;SDS011;18500;43.618;1.474;2024-03-08T13:40:08;18.52;;;17.67;;
31974;SDS011;18500;43.618;1.474;2024-03-08T13:42:41;9.02;;;8.57;;
31974;SDS011;18500;43.618;1.474;2024-03-08T13:45:08;4.30;;;4.10;;
31974;SDS011;18500;43.618;1.474;2024-03-08T13:47:36;11.18;;;10.68;;
31974;SDS011;18500;43.618;1.474;2024-03-08T13:50:02;4.15;;;3.90;;
31974;SDS011;18500;43.618;1.474;2024-03-08T13:52:29;4.18;;;3.97;;
31974;SDS011;18500;43.618;1.474;2024-03-08T13:54:55;3.45;;;3.22;;
31974;SDS011;18500;43.618;1.474;2024-03-08T13:57:21;4.82;;;4.43;;
31974;SDS011;18500;43.618;1.474;2024-03-08T13:59:47;3.90;;;3.60;;
31974;SDS011;18500;43.618;1.474;2024-03-08T14:02:16;4.88;;;4.57;;
31974;SDS011;18500;43.618;1.474;2024-03-08T14:04:42;5.82;;;5.32;;
31974;SDS011;18500;43.618;1.474;2024-03-08T14:07:08;4.05;;;3.78;;
31974;SDS011;18500;43.618;1.474;2024-03-08T14:09:35;6.53;;;5.95;;
31974;SDS011;18500;43.618;1.474;2024-03-08T14:12:03;3.80;;;3.50;;
31974;SDS011;18500;43.618;1.474;2024-03-08T14:14:32;4.85;;;4.07;;
31974;SDS011;18500;43.618;1.474;2024-03-08T14:17:00;5.65;;;5.38;;
31974;SDS011;18500;43.618;1.474;2024-03-08T14:19:29;5.70;;;5.30;;
31974;SDS011;18500;43.618;1.474;2024-03-08T14:21:58;4.13;;;3.92;;
31974;SDS011;18500;43.618;1.474;2024-03-08T14:24:25;3.67;;;3.47;;
31974;SDS011;18500;43.618;1.474;2024-03-08T14:26:51;3.70;;;3.50;;
31974;SDS011;18500;43.618;1.474;2024-03-08T14:29:17;3.58;;;3.38;;
31974;SDS011;18500;43.618;1.474;2024-03-08T14:31:45;3.72;;;3.45;;
31974;SDS011;18500;43.618;1.474;2024-03-08T14:34:11;3.60;;;3.30;;
31974;SDS011;18500;43.618;1.474;2024-03-08T14:36:39;3.58;;;3.28;;
31974;SDS011;18500;43.618;1.474;2024-03-08T14:39:05;3.30;;;3.10;;
31974;SDS011;18500;43.618;1.474;2024-03-08T14:41:32;3.58;;;3.30;;
31974;SDS011;18500;43.618;1.474;2024-03-08T14:43:58;4.28;;;3.97;;
31974;SDS011;18500;43.618;1.474;2024-03-08T14:46:24;4.28;;;4.07;;
31974;SDS011;18500;43.618;1.474;2024-03-08T14:48:54;3.90;;;3.55;;
31974;SDS011;18500;43.618;1.474;2024-03-08T14:51:21;4.35;;;4.15;;
31974;SDS011;18500;43.618;1.474;2024-03-08T14:53:49;4.13;;;3.92;;
31974;SDS011;18500;43.618;1.474;2024-03-08T14:56:15;4.55;;;4.28;;
31974;SDS011;18500;43.618;1.474;2024-03-08T14:58:50;4.18;;;3.72;;
31974;SDS011;18500;43.618;1.474;2024-03-08T15:01:16;7.53;;;3.33;;
31974;SDS011;18500;43.618;1.474;2024-03-08T15:03:47;3.92;;;3.63;;
31974;SDS011;18500;43.618;1.474;2024-03-08T15:06:13;3.97;;;3.78;;
31974;SDS011;18500;43.618;1.474;2024-03-08T15:08:41;3.38;;;3.17;;
31974;SDS011;18500;43.618;1.474;2024-03-08T15:11:07;3.53;;;3.33;;
31974;SDS011;18500;43.618;1.474;2024-03-08T15:13:34;3.45;;;3.25;;
31974;SDS011;18500;43.618;1.474;2024-03-08T15:16:09;3.90;;;3.38;;
31974;SDS011;18500;43.618;1.474;2024-03-08T15:18:41;4.70;;;4.30;;
31974;SDS011;18500;43.618;1.474;2024-03-08T15:21:11;5.05;;;4.13;;
31974;SDS011;18500;43.618;1.474;2024-03-08T15:23:38;4.43;;;3.95;;
31974;SDS011;18500;43.618;1.474;2024-03-08T15:26:11;3.83;;;2.90;;
31974;SDS011;18500;43.618;1.474;2024-03-08T15:28:37;3.33;;;3.03;;
31974;SDS011;18500;43.618;1.474;2024-03-08T15:31:03;7.80;;;3.55;;
31974;SDS011;18500;43.618;1.474;2024-03-08T15:33:33;3.60;;;3.08;;
31974;SDS011;18500;43.618;1.474;2024-03-08T15:35:59;3.13;;;2.88;;
31974;SDS011;18500;43.618;1.474;2024-03-08T15:38:34;3.60;;;3.40;;
31974;SDS011;18500;43.618;1.474;2024-03-08T15:41:00;3.45;;;3.17;;
31974;SDS011;18500;43.618;1.474;2024-03-08T15:43:26;4.07;;;3.78;;
31974;SDS011;18500;43.618;1.474;2024-03-08T15:45:52;4.25;;;4.03;;
31974;SDS011;18500;43.618;1.474;2024-03-08T15:48:19;5.65;;;5.15;;
31974;SDS011;18500;43.618;1.474;2024-03-08T15:50:46;6.78;;;6.45;;
31974;SDS011;18500;43.618;1.474;2024-03-08T15:53:12;7.60;;;7.10;;
31974;SDS011;18500;43.618;1.474;2024-03-08T15:55:40;6.78;;;6.43;;
31974;SDS011;18500;43.618;1.474;2024-03-08T15:58:06;8.52;;;8.02;;
31974;SDS011;18500;43.618;1.474;2024-03-08T16:00:32;8.63;;;8.13;;
31974;SDS011;18500;43.618;1.474;2024-03-08T16:03:13;10.95;;;10.43;;
31974;SDS011;18500;43.618;1.474;2024-03-08T16:05:40;10.60;;;10.00;;
31974;SDS011;18500;43.618;1.474;2024-03-08T16:08:13;10.75;;;10.15;;
31974;SDS011;18500;43.618;1.474;2024-03-08T16:10:53;10.85;;;10.05;;
31974;SDS011;18500;43.618;1.474;2024-03-08T16:13:20;10.75;;;10.05;;
31974;SDS011;18500;43.618;1.474;2024-03-08T16:15:47;10.95;;;10.25;;
31974;SDS011;18500;43.618;1.474;2024-03-08T16:18:14;10.90;;;10.20;;
31974;SDS011;18500;43.618;1.474;2024-03-08T16:20:41;11.40;;;10.82;;
31974;SDS011;18500;43.618;1.474;2024-03-08T16:23:12;10.97;;;10.37;;
31974;SDS011;18500;43.618;1.474;2024-03-08T16:25:41;13.43;;;12.82;;
31974;SDS011;18500;43.618;1.474;2024-03-08T16:28:08;13.73;;;13.02;;
31974;SDS011;18500;43.618;1.474;2024-03-08T16:30:35;14.02;;;13.30;;
31974;SDS011;18500;43.618;1.474;2024-03-08T16:33:16;13.25;;;12.45;;
31974;SDS011;18500;43.618;1.474;2024-03-08T16:35:43;13.48;;;12.73;;
31974;SDS011;18500;43.618;1.474;2024-03-08T16:38:12;12.13;;;11.30;;
31974;SDS011;18500;43.618;1.474;2024-03-08T16:40:39;13.57;;;12.80;;
31974;SDS011;18500;43.618;1.474;2024-03-08T16:43:05;13.77;;;13.02;;
31974;SDS011;18500;43.618;1.474;2024-03-08T16:45:36;11.77;;;11.15;;
31974;SDS011;18500;43.618;1.474;2024-03-08T16:48:05;12.02;;;11.32;;
31974;SDS011;18500;43.618;1.474;2024-03-08T16:50:32;11.75;;;11.00;;
31974;SDS011;18500;43.618;1.474;2024-03-08T16:52:58;12.35;;;11.65;;
31974;SDS011;18500;43.618;1.474;2024-03-08T16:55:25;12.82;;;12.13;;
31974;SDS011;18500;43.618;1.474;2024-03-08T16:57:51;11.57;;;10.88;;
31974;SDS011;18500;43.618;1.474;2024-03-08T17:00:18;11.77;;;11.00;;
31974;SDS011;18500;43.618;1.474;2024-03-08T17:02:57;13.38;;;12.25;;
31974;SDS011;18500;43.618;1.474;2024-03-08T17:05:23;11.45;;;10.70;;
31974;SDS011;18500;43.618;1.474;2024-03-08T17:07:53;12.32;;;11.35;;
31974;SDS011;18500;43.618;1.474;2024-03-08T17:10:22;13.18;;;11.98;;
31974;SDS011;18500;43.618;1.474;2024-03-08T17:12:55;12.02;;;11.13;;
31974;SDS011;18500;43.618;1.474;2024-03-08T17:15:24;12.57;;;11.77;;
31974;SDS011;18500;43.618;1.474;2024-03-08T17:17:51;10.95;;;10.00;;
31974;SDS011;18500;43.618;1.474;2024-03-08T17:20:19;9.15;;;8.45;;
31974;SDS011;18500;43.618;1.474;2024-03-08T17:22:46;10.30;;;9.57;;
31974;SDS011;18500;43.618;1.474;2024-03-08T17:25:19;9.98;;;9.48;;
31974;SDS011;18500;43.618;1.474;2024-03-08T17:27:46;10.40;;;9.55;;
31974;SDS011;18500;43.618;1.474;2024-03-08T17:32:55;8.10;;;7.40;;
31974;SDS011;18500;43.618;1.474;2024-03-08T17:35:23;7.15;;;6.72;;
31974;SDS011;18500;43.618;1.474;2024-03-08T17:37:50;6.78;;;6.22;;
31974;SDS011;18500;43.618;1.474;2024-03-08T17:40:20;7.60;;;7.20;;
31974;SDS011;18500;43.618;1.474;2024-03-08T17:42:51;8.90;;;8.20;;
31974;SDS011;18500;43.618;1.474;2024-03-08T17:45:21;8.15;;;7.57;;
31974;SDS011;18500;43.618;1.474;2024-03-08T17:47:49;10.93;;;9.93;;
31974;SDS011;18500;43.618;1.474;2024-03-08T17:50:17;10.70;;;9.80;;
31974;SDS011;18500;43.618;1.474;2024-03-08T17:52:44;10.07;;;9.20;;
31974;SDS011;18500;43.618;1.474;2024-03-08T17:55:11;9.57;;;8.73;;
31974;SDS011;18500;43.618;1.474;2024-03-08T17:57:42;18.00;;;11.45;;
31974;SDS011;18500;43.618;1.474;2024-03-08T18:00:10;30.90;;;21.20;;
31974;SDS011;18500;43.618;1.474;2024-03-08T18:02:46;11.38;;;9.73;;
31974;SDS011;18500;43.618;1.474;2024-03-08T18:05:16;10.02;;;8.90;;
31974;SDS011;18500;43.618;1.474;2024-03-08T18:07:42;10.38;;;9.25;;
31974;SDS011;18500;43.618;1.474;2024-03-08T18:10:09;9.10;;;8.23;;
31974;SDS011;18500;43.618;1.474;2024-03-08T18:12:44;10.63;;;8.48;;
31974;SDS011;18500;43.618;1.474;2024-03-08T18:15:12;12.02;;;10.23;;
31974;SDS011;18500;43.618;1.474;2024-03-08T18:17:38;9.02;;;8.13;;
31974;SDS011;18500;43.618;1.474;2024-03-08T18:20:06;8.73;;;7.82;;
31974;SDS011;18500;43.618;1.474;2024-03-08T18:22:39;10.23;;;8.32;;
31974;SDS011;18500;43.618;1.474;2024-03-08T18:25:05;28.05;;;11.82;;
31974;SDS011;18500;43.618;1.474;2024-03-08T18:27:37;18.33;;;11.23;;
31974;SDS011;18500;43.618;1.474;2024-03-08T18:30:04;11.10;;;10.00;;
31974;SDS011;18500;43.618;1.474;2024-03-08T18:32:30;11.55;;;10.40;;
31974;SDS011;18500;43.618;1.474;2024-03-08T18:34:56;9.73;;;9.02;;
31974;SDS011;18500;43.618;1.474;2024-03-08T18:37:22;9.18;;;8.27;;
31974;SDS011;18500;43.618;1.474;2024-03-08T18:39:47;11.77;;;10.75;;
31974;SDS011;18500;43.618;1.474;2024-03-08T18:42:13;8.73;;;8.02;;
31974;SDS011;18500;43.618;1.474;2024-03-08T18:44:39;9.18;;;8.27;;
31974;SDS011;18500;43.618;1.474;2024-03-08T18:47:04;27.10;;;17.33;;
31974;SDS011;18500;43.618;1.474;2024-03-08T18:49:30;35.55;;;18.85;;
31974;SDS011;18500;43.618;1.474;2024-03-08T18:51:56;12.88;;;9.60;;
31974;SDS011;18500;43.618;1.474;2024-03-08T18:54:24;14.77;;;9.65;;
31974;SDS011;18500;43.618;1.474;2024-03-08T18:56:51;13.43;;;8.73;;
31974;SDS011;18500;43.618;1.474;2024-03-08T18:59:19;12.38;;;8.48;;
31974;SDS011;18500;43.618;1.474;2024-03-08T19:01:45;11.02;;;10.02;;
31974;SDS011;18500;43.618;1.474;2024-03-08T19:04:13;11.85;;;9.48;;
31974;SDS011;18500;43.618;1.474;2024-03-08T19:06:39;11.98;;;7.97;;
31974;SDS011;18500;43.618;1.474;2024-03-08T19:09:05;10.27;;;7.97;;
31974;SDS011;18500;43.618;1.474;2024-03-08T19:11:34;11.25;;;9.00;;
31974;SDS011;18500;43.618;1.474;2024-03-08T19:14:01;13.35;;;10.48;;
31974;SDS011;18500;43.618;1.474;2024-03-08T19:16:27;15.02;;;9.70;;
31974;SDS011;18500;43.618;1.474;2024-03-08T19:18:53;9.95;;;8.25;;
31974;SDS011;18500;43.618;1.474;2024-03-08T19:21:19;9.40;;;8.20;;
31974;SDS011;18500;43.618;1.474;2024-03-08T19:23:46;9.00;;;7.53;;
31974;SDS011;18500;43.618;1.474;2024-03-08T19:26:12;8.20;;;7.13;;
31974;SDS011;18500;43.618;1.474;2024-03-08T19:28:39;10.55;;;6.65;;
31974;SDS011;18500;43.618;1.474;2024-03-08T19:31:05;8.73;;;7.40;;
31974;SDS011;18500;43.618;1.474;2024-03-08T19:33:31;8.13;;;7.30;;
31974;SDS011;18500;43.618;1.474;2024-03-08T19:35:56;8.48;;;7.50;;
31974;SDS011;18500;43.618;1.474;2024-03-08T19:38:22;9.60;;;7.53;;
31974;SDS011;18500;43.618;1.474;2024-03-08T19:40:48;9.02;;;7.78;;
31974;SDS011;18500;43.618;1.474;2024-03-08T19:43:16;8.40;;;7.50;;
31974;SDS011;18500;43.618;1.474;2024-03-08T19:45:42;9.13;;;8.32;;
31974;SDS011;18500;43.618;1.474;2024-03-08T19:48:08;8.02;;;7.20;;
31974;SDS011;18500;43.618;1.474;2024-03-08T19:50:45;9.43;;;8.52;;
31974;SDS011;18500;43.618;1.474;2024-03-08T19:53:11;11.88;;;10.57;;
31974;SDS011;18500;43.618;1.474;2024-03-08T19:55:38;11.80;;;9.35;;
31974;SDS011;18500;43.618;1.474;2024-03-08T19:58:05;12.88;;;11.18;;
31974;SDS011;18500;43.618;1.474;2024-03-08T20:00:37;13.50;;;10.52;;
31974;SDS011;18500;43.618;1.474;2024-03-08T20:03:03;53.67;;;37.38;;
31974;SDS011;18500;43.618;1.474;2024-03-08T20:05:31;33.22;;;24.45;;
31974;SDS011;18500;43.618;1.474;2024-03-08T20:07:59;33.35;;;24.60;;
31974;SDS011;18500;43.618;1.474;2024-03-08T20:10:38;31.63;;;23.83;;
31974;SDS011;18500;43.618;1.474;2024-03-08T20:13:04;13.95;;;12.52;;
31974;SDS011;18500;43.618;1.474;2024-03-08T20:15:33;9.50;;;8.50;;
31974;SDS011;18500;43.618;1.474;2024-03-08T20:18:02;16.05;;;12.50;;
31974;SDS011;18500;43.618;1.474;2024-03-08T20:20:29;13.77;;;11.25;;
31974;SDS011;18500;43.618;1.474;2024-03-08T20:22:55;21.73;;;16.58;;
31974;SDS011;18500;43.618;1.474;2024-03-08T20:25:21;14.75;;;11.77;;
31974;SDS011;18500;43.618;1.474;2024-03-08T20:27:51;11.40;;;9.73;;
31974;SDS011;18500;43.618;1.474;2024-03-08T20:30:19;17.48;;;12.95;;
31974;SDS011;18500;43.618;1.474;2024-03-08T20:35:22;12.57;;;10.75;;
31974;SDS011;18500;43.618;1.474;2024-03-08T20:37:49;13.65;;;12.20;;
31974;SDS011;18500;43.618;1.474;2024-03-08T20:40:16;17.73;;;14.93;;
31974;SDS011;18500;43.618;1.474;2024-03-08T20:42:48;15.55;;;12.15;;
31974;SDS011;18500;43.618;1.474;2024-03-08T20:45:17;17.85;;;14.20;;
31974;SDS011;18500;43.618;1.474;2024-03-08T20:47:42;29.58;;;19.00;;
31974;SDS011;18500;43.618;1.474;2024-03-08T20:50:08;26.95;;;22.33;;
31974;SDS011;18500;43.618;1.474;2024-03-08T20:52:41;19.30;;;15.38;;
31974;SDS011;18500;43.618;1.474;2024-03-08T20:55:11;17.83;;;14.70;;
31974;SDS011;18500;43.618;1.474;2024-03-08T20:57:42;18.65;;;16.38;;
31974;SDS011;18500;43.618;1.474;2024-03-08T21:00:14;17.27;;;12.80;;
31974;SDS011;18500;43.618;1.474;2024-03-08T21:03:06;18.25;;;13.90;;
31974;SDS011;18500;43.618;1.474;2024-03-08T21:05:38;11.95;;;10.75;;
31974;SDS011;18500;43.618;1.474;2024-03-08T21:08:09;16.15;;;12.52;;
31974;SDS011;18500;43.618;1.474;2024-03-08T21:10:42;16.35;;;12.57;;
31974;SDS011;18500;43.618;1.474;2024-03-08T21:13:11;17.55;;;15.85;;
31974;SDS011;18500;43.618;1.474;2024-03-08T21:15:37;12.95;;;11.65;;
31974;SDS011;18500;43.618;1.474;2024-03-08T21:18:07;16.05;;;14.18;;
31974;SDS011;18500;43.618;1.474;2024-03-08T21:20:34;18.17;;;15.95;;
31974;SDS011;18500;43.618;1.474;2024-03-08T21:23:00;17.95;;;14.20;;
31974;SDS011;18500;43.618;1.474;2024-03-08T21:25:29;21.15;;;17.10;;
31974;SDS011;18500;43.618;1.474;2024-03-08T21:28:01;20.42;;;15.38;;
31974;SDS011;18500;43.618;1.474;2024-03-08T21:30:29;16.20;;;13.18;;